sensor_id;sensor_type;location;lat;lon;timestamp;pressure;altitude;pressure_sealevel;temperature;humidity
80682;BME280;70045;40.200;44.582;2023-06-10T00:00:05;86029.16;;;17.92;51.00
80682;BME280;70045;40.200;44.582;2023-06-10T00:02:31;86029.94;;;17.83;50.95
80682;BME280;70045;40.200;44.582;2023-06-10T00:04:59;86020.47;;;17.86;51.15
80682;BME280;70045;40.200;44.582;2023-06-10T00:07:24;86036.22;;;17.86;51.23
80682;BME280;70045;40.200;44.582;2023-06-10T00:09:50;86043.50;;;17.82;51.18
80682;BME280;70045;40.200;44.582;2023-06-10T00:12:15;86043.50;;;17.82;51.30
80682;BME280;70045;40.200;44.582;2023-06-10T00:14:41;86031.47;;;17.75;51.78
80682;BME280;70045;40.200;44.582;2023-06-10T00:17:09;86031.22;;;17.73;51.51
80682;BME280;70045;40.200;44.582;2023-06-10T00:19:35;86024.94;;;17.56;52.55
80682;BME280;70045;40.200;44.582;2023-06-10T00:22:00;86039.16;;;17.64;51.64
80682;BME280;70045;40.200;44.582;2023-06-10T00:24:25;86039.97;;;17.70;51.10
80682;BME280;70045;40.200;44.582;2023-06-10T00:26:51;86032.31;;;17.81;51.18
80682;BME280;70045;40.200;44.582;2023-06-10T00:29:20;86028.16;;;17.90;51.09
80682;BME280;70045;40.200;44.582;2023-06-10T00:31:45;86018.22;;;17.94;50.56
80682;BME280;70045;40.200;44.582;2023-06-10T00:34:11;86028.44;;;17.92;50.28
80682;BME280;70045;40.200;44.582;2023-06-10T00:36:36;86026.72;;;17.88;50.60
80682;BME280;70045;40.200;44.582;2023-06-10T00:39:02;86032.00;;;17.79;52.07
80682;BME280;70045;40.200;44.582;2023-06-10T00:41:30;86036.72;;;17.75;51.64
80682;BME280;70045;40.200;44.582;2023-06-10T00:43:56;86042.69;;;17.76;50.89
80682;BME280;70045;40.200;44.582;2023-06-10T00:46:23;86037.91;;;17.74;51.70
80682;BME280;70045;40.200;44.582;2023-06-10T00:48:49;86039.88;;;17.64;51.76
80682;BME280;70045;40.200;44.582;2023-06-10T00:51:16;86041.50;;;17.62;51.67
80682;BME280;70045;40.200;44.582;2023-06-10T00:53:45;86046.19;;;17.58;52.39
80682;BME280;70045;40.200;44.582;2023-06-10T00:56:10;86044.28;;;17.43;52.74
80682;BME280;70045;40.200;44.582;2023-06-10T00:58:36;86045.16;;;17.40;52.26
80682;BME280;70045;40.200;44.582;2023-06-10T01:01:02;86048.06;;;17.42;53.43
80682;BME280;70045;40.200;44.582;2023-06-10T01:03:27;86048.31;;;17.44;52.45
80682;BME280;70045;40.200;44.582;2023-06-10T01:06:24;86052.47;;;17.36;53.12
80682;BME280;70045;40.200;44.582;2023-06-10T01:11:37;86050.66;;;17.27;52.67
80682;BME280;70045;40.200;44.582;2023-06-10T01:14:04;86065.00;;;17.32;51.91
80682;BME280;70045;40.200;44.582;2023-06-10T01:16:33;86049.63;;;17.25;52.42
80682;BME280;70045;40.200;44.582;2023-06-10T01:18:59;86063.06;;;17.42;51.74
80682;BME280;70045;40.200;44.582;2023-06-10T01:21:24;86063.72;;;17.52;51.87
80682;BME280;70045;40.200;44.582;2023-06-10T01:23:52;86060.00;;;17.58;52.05
80682;BME280;70045;40.200;44.582;2023-06-10T01:26:19;86071.06;;;17.62;52.21
80682;BME280;70045;40.200;44.582;2023-06-10T01:29:14;86060.63;;;17.53;51.98
80682;BME280;70045;40.200;44.582;2023-06-10T01:31:43;86060.53;;;17.47;52.71
80682;BME280;70045;40.200;44.582;2023-06-10T01:34:14;86055.69;;;17.55;51.33
80682;BME280;70045;40.200;44.582;2023-06-10T01:36:44;86050.38;;;17.64;51.91
80682;BME280;70045;40.200;44.582;2023-06-10T01:39:15;86052.63;;;17.72;51.30
80682;BME280;70045;40.200;44.582;2023-06-10T01:41:41;86058.94;;;17.65;50.95
80682;BME280;70045;40.200;44.582;2023-06-10T01:44:06;86055.28;;;17.47;51.97
80682;BME280;70045;40.200;44.582;2023-06-10T01:46:32;86054.00;;;17.43;51.83
80682;BME280;70045;40.200;44.582;2023-06-10T01:48:57;86063.59;;;17.46;51.52
80682;BME280;70045;40.200;44.582;2023-06-10T01:51:25;86060.25;;;17.45;52.07
80682;BME280;70045;40.200;44.582;2023-06-10T01:53:51;86059.06;;;17.31;52.10
80682;BME280;70045;40.200;44.582;2023-06-10T01:56:16;86075.16;;;17.39;51.95
80682;BME280;70045;40.200;44.582;2023-06-10T01:58:42;86075.16;;;17.39;51.92
80682;BME280;70045;40.200;44.582;2023-06-10T02:01:07;86076.88;;;17.42;52.06
80682;BME280;70045;40.200;44.582;2023-06-10T02:03:37;86074.81;;;17.46;52.71
80682;BME280;70045;40.200;44.582;2023-06-10T02:06:03;86073.63;;;17.47;52.28
80682;BME280;70045;40.200;44.582;2023-06-10T02:08:28;86071.28;;;17.49;52.56
80682;BME280;70045;40.200;44.582;2023-06-10T02:10:53;86067.25;;;17.48;51.53
80682;BME280;70045;40.200;44.582;2023-06-10T02:13:19;86065.44;;;17.55;51.99
80682;BME280;70045;40.200;44.582;2023-06-10T02:15:47;86053.50;;;17.54;52.06
80682;BME280;70045;40.200;44.582;2023-06-10T02:18:12;86050.53;;;17.61;51.65
80682;BME280;70045;40.200;44.582;2023-06-10T02:20:38;86056.88;;;17.69;51.72
80682;BME280;70045;40.200;44.582;2023-06-10T02:23:04;86053.00;;;17.79;51.58
80682;BME280;70045;40.200;44.582;2023-06-10T02:25:29;86059.34;;;17.87;51.27
80682;BME280;70045;40.200;44.582;2023-06-10T02:27:58;86049.44;;;17.92;51.44
80682;BME280;70045;40.200;44.582;2023-06-10T02:30:23;86062.81;;;18.09;51.19
80682;BME280;70045;40.200;44.582;2023-06-10T02:32:48;86063.19;;;18.16;51.04
80682;BME280;70045;40.200;44.582;2023-06-10T02:35:14;86069.22;;;18.22;50.87
80682;BME280;70045;40.200;44.582;2023-06-10T02:37:40;86062.81;;;18.23;51.49
80682;BME280;70045;40.200;44.582;2023-06-10T02:40:09;86056.66;;;18.27;51.51
80682;BME280;70045;40.200;44.582;2023-06-10T02:42:34;86068.34;;;18.40;51.25
80682;BME280;70045;40.200;44.582;2023-06-10T02:45:00;86062.97;;;18.50;50.94
80682;BME280;70045;40.200;44.582;2023-06-10T02:47:25;86073.66;;;18.61;51.14
80682;BME280;70045;40.200;44.582;2023-06-10T02:49:50;86059.84;;;18.66;50.57
80682;BME280;70045;40.200;44.582;2023-06-10T02:52:20;86059.50;;;18.73;50.88
80682;BME280;70045;40.200;44.582;2023-06-10T02:54:46;86059.47;;;18.88;50.48
80682;BME280;70045;40.200;44.582;2023-06-10T02:57:11;86064.16;;;18.99;50.72
80682;BME280;70045;40.200;44.582;2023-06-10T02:59:36;86049.25;;;19.11;50.61
80682;BME280;70045;40.200;44.582;2023-06-10T03:02:02;86050.13;;;19.23;49.99
80682;BME280;70045;40.200;44.582;2023-06-10T03:04:30;86045.53;;;19.38;49.75
80682;BME280;70045;40.200;44.582;2023-06-10T03:06:55;86043.50;;;19.48;49.17
80682;BME280;70045;40.200;44.582;2023-06-10T03:09:21;86047.69;;;19.60;49.22
80682;BME280;70045;40.200;44.582;2023-06-10T03:11:46;86048.53;;;19.72;48.81
80682;BME280;70045;40.200;44.582;2023-06-10T03:14:11;86050.84;;;19.85;48.12
80682;BME280;70045;40.200;44.582;2023-06-10T03:16:40;86057.66;;;19.97;46.24
80682;BME280;70045;40.200;44.582;2023-06-10T03:19:06;86056.06;;;20.05;45.97
80682;BME280;70045;40.200;44.582;2023-06-10T03:21:31;86058.53;;;20.15;45.80
80682;BME280;70045;40.200;44.582;2023-06-10T03:23:57;86057.88;;;20.20;44.88
80682;BME280;70045;40.200;44.582;2023-06-10T03:26:22;86062.03;;;20.32;46.03
80682;BME280;70045;40.200;44.582;2023-06-10T03:28:50;86065.53;;;20.49;44.86
80682;BME280;70045;40.200;44.582;2023-06-10T03:31:16;86058.16;;;20.54;44.47
80682;BME280;70045;40.200;44.582;2023-06-10T03:33:41;86062.06;;;20.64;44.38
80682;BME280;70045;40.200;44.582;2023-06-10T03:36:07;86069.56;;;20.71;44.54
80682;BME280;70045;40.200;44.582;2023-06-10T03:38:32;86067.69;;;20.77;44.10
80682;BME280;70045;40.200;44.582;2023-06-10T03:41:00;86063.09;;;20.72;43.19
80682;BME280;70045;40.200;44.582;2023-06-10T03:43:25;86064.28;;;20.71;44.12
80682;BME280;70045;40.200;44.582;2023-06-10T03:45:51;86067.41;;;20.69;43.15
80682;BME280;70045;40.200;44.582;2023-06-10T03:48:16;86064.50;;;20.67;43.04
80682;BME280;70045;40.200;44.582;2023-06-10T03:50:42;86059.03;;;20.71;43.39
80682;BME280;70045;40.200;44.582;2023-06-10T03:53:10;86066.25;;;20.76;42.93
80682;BME280;70045;40.200;44.582;2023-06-10T03:55:35;86065.28;;;20.79;43.05
80682;BME280;70045;40.200;44.582;2023-06-10T03:58:00;86054.03;;;20.79;43.09
80682;BME280;70045;40.200;44.582;2023-06-10T04:00:26;86062.19;;;20.81;43.44
80682;BME280;70045;40.200;44.582;2023-06-10T04:02:51;86053.81;;;20.82;42.96
80682;BME280;70045;40.200;44.582;2023-06-10T04:05:20;86057.22;;;20.88;42.79
80682;BME280;70045;40.200;44.582;2023-06-10T04:07:45;86061.31;;;20.95;43.79
80682;BME280;70045;40.200;44.582;2023-06-10T04:10:11;86047.88;;;20.87;43.20
80682;BME280;70045;40.200;44.582;2023-06-10T04:12:37;86045.47;;;20.84;42.80
80682;BME280;70045;40.200;44.582;2023-06-10T04:15:04;86048.84;;;20.90;43.19
80682;BME280;70045;40.200;44.582;2023-06-10T04:17:32;86046.16;;;20.84;43.39
80682;BME280;70045;40.200;44.582;2023-06-10T04:19:57;86049.84;;;20.98;43.48
80682;BME280;70045;40.200;44.582;2023-06-10T04:22:24;86053.75;;;21.14;43.13
80682;BME280;70045;40.200;44.582;2023-06-10T04:24:49;86053.06;;;21.19;42.85
80682;BME280;70045;40.200;44.582;2023-06-10T04:27:15;86044.94;;;21.23;42.43
80682;BME280;70045;40.200;44.582;2023-06-10T04:29:43;86044.53;;;21.36;41.84
80682;BME280;70045;40.200;44.582;2023-06-10T04:32:08;86050.31;;;21.40;42.63
80682;BME280;70045;40.200;44.582;2023-06-10T04:34:34;86047.50;;;21.49;42.26
80682;BME280;70045;40.200;44.582;2023-06-10T04:36:59;86039.38;;;21.58;42.18
80682;BME280;70045;40.200;44.582;2023-06-10T04:39:25;86030.53;;;21.61;42.03
80682;BME280;70045;40.200;44.582;2023-06-10T04:41:53;86035.59;;;21.65;40.91
80682;BME280;70045;40.200;44.582;2023-06-10T04:44:18;86036.31;;;21.71;41.33
80682;BME280;70045;40.200;44.582;2023-06-10T04:46:44;86035.41;;;21.86;41.16
80682;BME280;70045;40.200;44.582;2023-06-10T04:49:10;86027.50;;;21.97;40.82
80682;BME280;70045;40.200;44.582;2023-06-10T04:51:35;86030.66;;;22.12;41.00
80682;BME280;70045;40.200;44.582;2023-06-10T04:54:03;86023.44;;;22.18;40.39
80682;BME280;70045;40.200;44.582;2023-06-10T04:56:29;86032.34;;;22.21;39.31
80682;BME280;70045;40.200;44.582;2023-06-10T04:58:56;86032.63;;;22.29;39.42
80682;BME280;70045;40.200;44.582;2023-06-10T05:01:22;86024.47;;;22.38;39.32
80682;BME280;70045;40.200;44.582;2023-06-10T05:03:47;86026.88;;;22.59;38.73
80682;BME280;70045;40.200;44.582;2023-06-10T05:06:15;86019.19;;;22.66;38.32
80682;BME280;70045;40.200;44.582;2023-06-10T05:08:41;86015.34;;;22.79;37.86
80682;BME280;70045;40.200;44.582;2023-06-10T05:11:06;86011.25;;;23.00;38.75
80682;BME280;70045;40.200;44.582;2023-06-10T05:13:32;86014.59;;;23.18;39.05
80682;BME280;70045;40.200;44.582;2023-06-10T05:15:57;86017.66;;;23.39;39.25
80682;BME280;70045;40.200;44.582;2023-06-10T05:18:26;86013.97;;;23.59;37.32
80682;BME280;70045;40.200;44.582;2023-06-10T05:20:51;86015.91;;;23.58;38.14
80682;BME280;70045;40.200;44.582;2023-06-10T05:23:17;86009.63;;;23.67;37.96
80682;BME280;70045;40.200;44.582;2023-06-10T05:25:42;86014.13;;;23.78;37.70
80682;BME280;70045;40.200;44.582;2023-06-10T05:28:08;86011.00;;;23.91;37.71
80682;BME280;70045;40.200;44.582;2023-06-10T05:30:36;86012.63;;;23.99;35.86
80682;BME280;70045;40.200;44.582;2023-06-10T05:33:03;86002.53;;;23.98;35.63
80682;BME280;70045;40.200;44.582;2023-06-10T05:35:29;86014.72;;;24.12;35.16
80682;BME280;70045;40.200;44.582;2023-06-10T05:37:54;86015.44;;;24.13;35.84
80682;BME280;70045;40.200;44.582;2023-06-10T05:40:19;86003.59;;;24.19;36.90
80682;BME280;70045;40.200;44.582;2023-06-10T05:42:47;86001.38;;;24.29;36.44
80682;BME280;70045;40.200;44.582;2023-06-10T05:45:13;86007.09;;;24.39;36.65
80682;BME280;70045;40.200;44.582;2023-06-10T05:47:38;85997.16;;;24.45;36.90
80682;BME280;70045;40.200;44.582;2023-06-10T05:50:04;86017.41;;;24.48;36.93
80682;BME280;70045;40.200;44.582;2023-06-10T05:52:30;86011.34;;;24.48;37.56
80682;BME280;70045;40.200;44.582;2023-06-10T05:54:58;86005.88;;;24.40;36.97
80682;BME280;70045;40.200;44.582;2023-06-10T05:57:23;86015.44;;;24.49;37.35
80682;BME280;70045;40.200;44.582;2023-06-10T05:59:49;85997.34;;;24.53;37.11
80682;BME280;70045;40.200;44.582;2023-06-10T06:02:14;86009.38;;;24.59;37.29
80682;BME280;70045;40.200;44.582;2023-06-10T06:04:40;86017.00;;;24.74;37.38
80682;BME280;70045;40.200;44.582;2023-06-10T06:07:08;86014.78;;;24.78;37.35
80682;BME280;70045;40.200;44.582;2023-06-10T06:09:33;85998.16;;;24.78;37.53
80682;BME280;70045;40.200;44.582;2023-06-10T06:11:58;86005.13;;;24.81;37.85
80682;BME280;70045;40.200;44.582;2023-06-10T06:14:24;86007.09;;;24.75;37.79
80682;BME280;70045;40.200;44.582;2023-06-10T06:16:49;86006.09;;;24.78;37.18
80682;BME280;70045;40.200;44.582;2023-06-10T06:19:17;86004.47;;;24.99;37.96
80682;BME280;70045;40.200;44.582;2023-06-10T06:21:43;86013.47;;;24.91;37.78
80682;BME280;70045;40.200;44.582;2023-06-10T06:24:08;86009.47;;;24.78;37.53
80682;BME280;70045;40.200;44.582;2023-06-10T06:26:34;86016.50;;;24.76;37.89
80682;BME280;70045;40.200;44.582;2023-06-10T06:28:59;86015.25;;;24.77;38.42
80682;BME280;70045;40.200;44.582;2023-06-10T06:31:27;86016.44;;;24.81;37.92
80682;BME280;70045;40.200;44.582;2023-06-10T06:33:53;86006.53;;;24.82;38.41
80682;BME280;70045;40.200;44.582;2023-06-10T06:36:18;86013.84;;;24.76;38.63
80682;BME280;70045;40.200;44.582;2023-06-10T06:38:43;86007.00;;;24.86;38.50
80682;BME280;70045;40.200;44.582;2023-06-10T06:41:09;86002.84;;;24.96;38.47
80682;BME280;70045;40.200;44.582;2023-06-10T06:43:37;86019.19;;;25.00;37.54
80682;BME280;70045;40.200;44.582;2023-06-10T06:46:02;86014.84;;;24.97;37.82
80682;BME280;70045;40.200;44.582;2023-06-10T06:48:28;86013.31;;;25.08;37.58
80682;BME280;70045;40.200;44.582;2023-06-10T06:50:53;86013.44;;;25.21;37.70
80682;BME280;70045;40.200;44.582;2023-06-10T06:53:18;86017.56;;;25.47;36.98
80682;BME280;70045;40.200;44.582;2023-06-10T06:55:47;86020.47;;;25.68;36.62
80682;BME280;70045;40.200;44.582;2023-06-10T06:58:12;86005.44;;;25.95;36.75
80682;BME280;70045;40.200;44.582;2023-06-10T07:00:37;86011.91;;;26.19;35.72
80682;BME280;70045;40.200;44.582;2023-06-10T07:03:03;86013.38;;;26.20;36.06
80682;BME280;70045;40.200;44.582;2023-06-10T07:05:28;85999.28;;;26.25;36.00
80682;BME280;70045;40.200;44.582;2023-06-10T07:07:56;86003.44;;;26.20;35.14
80682;BME280;70045;40.200;44.582;2023-06-10T07:10:23;85992.81;;;26.39;35.00
80682;BME280;70045;40.200;44.582;2023-06-10T07:12:48;85994.38;;;26.67;34.77
80682;BME280;70045;40.200;44.582;2023-06-10T07:15:14;86005.81;;;26.62;34.99
80682;BME280;70045;40.200;44.582;2023-06-10T07:17:39;86003.41;;;26.58;35.25
80682;BME280;70045;40.200;44.582;2023-06-10T07:20:08;85989.91;;;26.75;34.84
80682;BME280;70045;40.200;44.582;2023-06-10T07:22:33;85991.13;;;26.74;35.04
80682;BME280;70045;40.200;44.582;2023-06-10T07:24:59;85989.31;;;26.96;34.47
80682;BME280;70045;40.200;44.582;2023-06-10T07:27:24;85976.03;;;27.09;33.37
80682;BME280;70045;40.200;44.582;2023-06-10T07:29:51;85977.72;;;27.26;33.54
80682;BME280;70045;40.200;44.582;2023-06-10T07:32:19;85966.63;;;27.08;33.85
80682;BME280;70045;40.200;44.582;2023-06-10T07:34:45;85980.38;;;27.26;33.81
80682;BME280;70045;40.200;44.582;2023-06-10T07:37:10;85970.13;;;27.16;32.70
80682;BME280;70045;40.200;44.582;2023-06-10T07:39:36;85973.59;;;27.24;33.51
80682;BME280;70045;40.200;44.582;2023-06-10T07:42:01;85960.75;;;27.42;32.63
80682;BME280;70045;40.200;44.582;2023-06-10T07:44:29;85963.28;;;27.74;31.14
80682;BME280;70045;40.200;44.582;2023-06-10T07:46:54;85959.69;;;27.85;32.80
80682;BME280;70045;40.200;44.582;2023-06-10T07:49:20;85949.03;;;27.98;32.60
80682;BME280;70045;40.200;44.582;2023-06-10T07:51:45;85958.25;;;28.11;30.66
80682;BME280;70045;40.200;44.582;2023-06-10T07:54:11;85950.47;;;28.34;32.27
80682;BME280;70045;40.200;44.582;2023-06-10T07:56:39;85947.81;;;28.34;30.44
80682;BME280;70045;40.200;44.582;2023-06-10T07:59:04;85945.06;;;28.26;30.97
80682;BME280;70045;40.200;44.582;2023-06-10T08:01:30;85939.25;;;28.14;31.59
80682;BME280;70045;40.200;44.582;2023-06-10T08:03:55;85938.25;;;28.17;31.63
80682;BME280;70045;40.200;44.582;2023-06-10T08:06:21;85928.44;;;28.33;31.62
80682;BME280;70045;40.200;44.582;2023-06-10T08:08:49;85930.34;;;28.12;30.82
80682;BME280;70045;40.200;44.582;2023-06-10T08:11:14;85927.47;;;28.10;31.75
80682;BME280;70045;40.200;44.582;2023-06-10T08:13:39;85923.03;;;28.47;31.48
80682;BME280;70045;40.200;44.582;2023-06-10T08:16:05;85918.00;;;28.57;31.04
80682;BME280;70045;40.200;44.582;2023-06-10T08:18:30;85916.47;;;28.48;29.95
80682;BME280;70045;40.200;44.582;2023-06-10T08:20:59;85914.81;;;28.58;30.75
80682;BME280;70045;40.200;44.582;2023-06-10T08:23:24;85915.97;;;28.49;30.41
80682;BME280;70045;40.200;44.582;2023-06-10T08:25:50;85916.34;;;28.32;30.53
80682;BME280;70045;40.200;44.582;2023-06-10T08:28:15;85917.69;;;28.26;30.23
80682;BME280;70045;40.200;44.582;2023-06-10T08:30:40;85908.84;;;28.31;30.50
80682;BME280;70045;40.200;44.582;2023-06-10T08:33:08;85903.34;;;28.50;30.06
80682;BME280;70045;40.200;44.582;2023-06-10T08:35:34;85896.28;;;28.73;30.25
80682;BME280;70045;40.200;44.582;2023-06-10T08:37:59;85901.72;;;28.89;30.17
80682;BME280;70045;40.200;44.582;2023-06-10T08:40:25;85894.47;;;28.68;29.88
80682;BME280;70045;40.200;44.582;2023-06-10T08:43:02;85889.81;;;28.48;30.06
80682;BME280;70045;40.200;44.582;2023-06-10T08:45:31;85882.66;;;28.43;29.56
80682;BME280;70045;40.200;44.582;2023-06-10T08:47:57;85885.47;;;28.37;30.54
80682;BME280;70045;40.200;44.582;2023-06-10T08:50:23;85879.16;;;28.48;29.94
80682;BME280;70045;40.200;44.582;2023-06-10T08:52:50;85872.38;;;28.47;29.67
80682;BME280;70045;40.200;44.582;2023-06-10T08:55:23;85868.47;;;28.48;28.92
80682;BME280;70045;40.200;44.582;2023-06-10T08:57:52;85881.16;;;28.76;29.48
80682;BME280;70045;40.200;44.582;2023-06-10T09:00:18;85861.47;;;29.08;28.09
80682;BME280;70045;40.200;44.582;2023-06-10T09:02:44;85861.91;;;29.20;27.76
80682;BME280;70045;40.200;44.582;2023-06-10T09:05:10;85861.28;;;29.35;28.73
80682;BME280;70045;40.200;44.582;2023-06-10T09:07:36;85848.03;;;29.58;28.47
80682;BME280;70045;40.200;44.582;2023-06-10T09:10:05;85848.56;;;29.56;27.45
80682;BME280;70045;40.200;44.582;2023-06-10T09:12:30;85839.16;;;29.63;27.32
80682;BME280;70045;40.200;44.582;2023-06-10T09:14:56;85834.84;;;30.04;27.92
80682;BME280;70045;40.200;44.582;2023-06-10T09:17:22;85832.41;;;30.45;26.56
80682;BME280;70045;40.200;44.582;2023-06-10T09:19:47;85826.72;;;30.79;26.57
80682;BME280;70045;40.200;44.582;2023-06-10T09:22:17;85813.03;;;31.62;24.26
80682;BME280;70045;40.200;44.582;2023-06-10T09:24:43;85812.25;;;32.17;23.26
80682;BME280;70045;40.200;44.582;2023-06-10T09:27:08;85800.09;;;32.74;24.25
80682;BME280;70045;40.200;44.582;2023-06-10T09:30:00;85801.28;;;33.41;23.37
80682;BME280;70045;40.200;44.582;2023-06-10T09:32:29;85794.47;;;33.92;20.98
80682;BME280;70045;40.200;44.582;2023-06-10T09:34:54;85802.00;;;34.04;22.40
80682;BME280;70045;40.200;44.582;2023-06-10T09:37:23;85794.63;;;34.22;21.03
80682;BME280;70045;40.200;44.582;2023-06-10T09:40:03;85790.66;;;34.87;19.92
80682;BME280;70045;40.200;44.582;2023-06-10T09:42:33;85789.16;;;34.66;21.28
80682;BME280;70045;40.200;44.582;2023-06-10T09:44:59;85785.91;;;33.86;22.21
80682;BME280;70045;40.200;44.582;2023-06-10T09:47:24;85772.25;;;33.57;21.98
80682;BME280;70045;40.200;44.582;2023-06-10T09:49:50;85772.78;;;32.86;21.50
80682;BME280;70045;40.200;44.582;2023-06-10T09:52:25;85772.81;;;32.02;21.86
80682;BME280;70045;40.200;44.582;2023-06-10T09:54:59;85781.28;;;31.35;22.86
80682;BME280;70045;40.200;44.582;2023-06-10T09:57:25;85777.31;;;30.65;24.19
80682;BME280;70045;40.200;44.582;2023-06-10T09:59:54;85771.97;;;30.26;24.05
80682;BME280;70045;40.200;44.582;2023-06-10T10:02:20;85772.81;;;29.98;25.17
80682;BME280;70045;40.200;44.582;2023-06-10T10:04:46;85769.81;;;29.42;25.82
80682;BME280;70045;40.200;44.582;2023-06-10T10:07:14;85781.97;;;29.14;26.63
80682;BME280;70045;40.200;44.582;2023-06-10T10:09:41;85782.72;;;28.86;26.99
80682;BME280;70045;40.200;44.582;2023-06-10T10:12:10;85781.84;;;28.62;27.12
80682;BME280;70045;40.200;44.582;2023-06-10T10:14:36;85782.00;;;28.35;27.75
80682;BME280;70045;40.200;44.582;2023-06-10T10:17:04;85792.44;;;28.05;28.39
80682;BME280;70045;40.200;44.582;2023-06-10T10:22:08;85783.19;;;27.50;29.38
80682;BME280;70045;40.200;44.582;2023-06-10T10:24:46;85787.09;;;27.36;29.68
80682;BME280;70045;40.200;44.582;2023-06-10T10:27:18;85788.47;;;27.16;30.26
80682;BME280;70045;40.200;44.582;2023-06-10T10:29:52;85782.88;;;26.79;30.39
80682;BME280;70045;40.200;44.582;2023-06-10T10:32:21;85793.00;;;26.81;30.36
80682;BME280;70045;40.200;44.582;2023-06-10T10:35:16;85797.41;;;26.78;30.45
80682;BME280;70045;40.200;44.582;2023-06-10T10:37:42;85802.50;;;26.63;30.56
80682;BME280;70045;40.200;44.582;2023-06-10T10:40:11;85808.22;;;26.54;30.81
80682;BME280;70045;40.200;44.582;2023-06-10T10:42:37;85812.19;;;26.47;30.95
80682;BME280;70045;40.200;44.582;2023-06-10T10:45:04;85814.25;;;26.41;30.80
80682;BME280;70045;40.200;44.582;2023-06-10T10:47:30;85802.66;;;26.25;30.54
80682;BME280;70045;40.200;44.582;2023-06-10T10:49:56;85808.34;;;26.16;30.23
80682;BME280;70045;40.200;44.582;2023-06-10T10:52:25;85812.13;;;26.07;30.13
80682;BME280;70045;40.200;44.582;2023-06-10T10:54:53;85813.44;;;26.00;30.20
80682;BME280;70045;40.200;44.582;2023-06-10T10:57:23;85820.47;;;25.98;30.37
80682;BME280;70045;40.200;44.582;2023-06-10T11:02:46;85835.47;;;25.95;32.28
80682;BME280;70045;40.200;44.582;2023-06-10T11:05:16;85846.66;;;25.88;33.18
80682;BME280;70045;40.200;44.582;2023-06-10T11:07:51;85859.19;;;25.55;33.77
80682;BME280;70045;40.200;44.582;2023-06-10T11:10:17;85864.44;;;25.42;34.19
80682;BME280;70045;40.200;44.582;2023-06-10T11:15:13;85859.97;;;25.50;35.03
80682;BME280;70045;40.200;44.582;2023-06-10T11:18:21;85858.19;;;25.58;35.17
80682;BME280;70045;40.200;44.582;2023-06-10T11:23:29;85857.47;;;25.58;35.11
80682;BME280;70045;40.200;44.582;2023-06-10T11:26:18;85854.75;;;25.44;35.87
80682;BME280;70045;40.200;44.582;2023-06-10T11:31:22;85847.72;;;25.47;36.06
80682;BME280;70045;40.200;44.582;2023-06-10T11:34:01;85839.09;;;25.41;36.37
80682;BME280;70045;40.200;44.582;2023-06-10T11:36:31;85846.28;;;25.46;36.44
80682;BME280;70045;40.200;44.582;2023-06-10T11:38:57;85841.41;;;25.50;36.76
80682;BME280;70045;40.200;44.582;2023-06-10T11:41:27;85843.47;;;25.57;37.23
80682;BME280;70045;40.200;44.582;2023-06-10T11:43:53;85857.75;;;25.54;36.82
80682;BME280;70045;40.200;44.582;2023-06-10T11:46:19;85870.19;;;25.21;37.07
80682;BME280;70045;40.200;44.582;2023-06-10T11:48:58;85854.88;;;24.89;39.45
80682;BME280;70045;40.200;44.582;2023-06-10T11:51:36;85861.44;;;24.64;39.22
80682;BME280;70045;40.200;44.582;2023-06-10T11:54:02;85865.91;;;24.44;39.72
80682;BME280;70045;40.200;44.582;2023-06-10T11:56:29;85872.06;;;24.28;39.68
80682;BME280;70045;40.200;44.582;2023-06-10T11:59:00;85869.66;;;23.99;40.39
80682;BME280;70045;40.200;44.582;2023-06-10T12:01:26;85881.56;;;23.81;39.69
80682;BME280;70045;40.200;44.582;2023-06-10T12:04:04;85876.91;;;23.52;42.40
80682;BME280;70045;40.200;44.582;2023-06-10T12:06:47;85870.75;;;23.32;42.29
80682;BME280;70045;40.200;44.582;2023-06-10T12:09:29;85873.94;;;23.19;43.30
80682;BME280;70045;40.200;44.582;2023-06-10T12:11:58;85875.19;;;23.12;43.04
80682;BME280;70045;40.200;44.582;2023-06-10T12:14:58;85891.75;;;23.13;43.37
80682;BME280;70045;40.200;44.582;2023-06-10T12:20:02;85927.09;;;23.04;44.52
80682;BME280;70045;40.200;44.582;2023-06-10T12:22:36;85929.09;;;22.75;44.97
80682;BME280;70045;40.200;44.582;2023-06-10T12:25:03;85920.97;;;22.06;47.15
80682;BME280;70045;40.200;44.582;2023-06-10T12:27:30;85942.75;;;21.55;48.71
80682;BME280;70045;40.200;44.582;2023-06-10T12:29:56;85938.78;;;21.22;49.70
80682;BME280;70045;40.200;44.582;2023-06-10T12:32:40;85939.59;;;20.85;52.75
80682;BME280;70045;40.200;44.582;2023-06-10T12:35:06;85953.38;;;20.63;53.59
80682;BME280;70045;40.200;44.582;2023-06-10T12:37:32;85956.75;;;20.32;55.67
80682;BME280;70045;40.200;44.582;2023-06-10T12:40:00;85971.34;;;20.01;56.76
80682;BME280;70045;40.200;44.582;2023-06-10T12:42:29;85979.09;;;19.84;56.59
80682;BME280;70045;40.200;44.582;2023-06-10T12:44:55;85979.69;;;19.73;56.46
80682;BME280;70045;40.200;44.582;2023-06-10T12:47:29;85981.16;;;19.74;57.72
80682;BME280;70045;40.200;44.582;2023-06-10T12:49:55;85973.09;;;19.84;55.93
80682;BME280;70045;40.200;44.582;2023-06-10T12:52:20;85976.09;;;19.97;55.51
80682;BME280;70045;40.200;44.582;2023-06-10T12:54:48;85982.22;;;20.15;56.08
80682;BME280;70045;40.200;44.582;2023-06-10T12:57:13;85978.81;;;20.40;54.76
80682;BME280;70045;40.200;44.582;2023-06-10T12:59:39;85946.47;;;20.66;54.45
80682;BME280;70045;40.200;44.582;2023-06-10T13:02:04;85943.41;;;20.84;54.88
80682;BME280;70045;40.200;44.582;2023-06-10T13:04:30;85941.31;;;20.88;54.46
80682;BME280;70045;40.200;44.582;2023-06-10T13:06:59;85922.19;;;21.05;54.93
80682;BME280;70045;40.200;44.582;2023-06-10T13:09:24;85911.69;;;21.16;55.66